Time;durP1;ratioP1;P1;durP2;ratioP2;P2;SDS_P1;SDS_P2;PMS_P1;PMS_P2;Temp;Humidity;BMP_temperature;BMP_pressure;BME280_temperature;BME280_humidity;BME280_pressure;Samples;Min_cycle;Max_cycle;Signal;HPM_P1;HPM_P2
2021/05/21 00:02:13;;;;;;;6.10;5.50;;;16.70;83.40;;;;;;5094225;28;20024;-66
2021/05/21 00:04:38;;;;;;;6.75;5.40;;;16.70;83.40;;;;;;5091830;28;20103;-66
2021/05/21 00:07:04;;;;;;;8.50;6.30;;;16.70;83.60;;;;;;5091748;28;20115;-66
2021/05/21 00:09:29;;;;;;;7.32;6.07;;;16.70;83.20;;;;;;5093470;28;20035;-66
2021/05/21 00:11:55;;;;;;;6.78;6.00;;;16.70;83.40;;;;;;5094775;28;20020;-66
2021/05/21 00:14:21;;;;;;;6.88;5.80;;;16.60;83.40;;;;;;5086050;28;20082;-66
2021/05/21 00:16:47;;;;;;;7.65;6.13;;;16.60;83.60;;;;;;5094116;28;20110;-66
2021/05/21 00:19:13;;;;;;;8.68;6.88;;;16.60;83.60;;;;;;5093584;28;20020;-68
2021/05/21 00:21:39;;;;;;;8.15;6.60;;;16.60;83.70;;;;;;5094329;28;20364;-66
2021/05/21 00:24:05;;;;;;;11.68;6.97;;;16.50;83.50;;;;;;5094106;28;20024;-66
2021/05/21 00:26:31;;;;;;;8.18;6.57;;;16.50;83.60;;;;;;5094104;28;20024;-66
2021/05/21 00:28:56;;;;;;;8.93;8.00;;;16.50;83.60;;;;;;5092962;28;20024;-66
2021/05/21 00:31:22;;;;;;;9.20;7.38;;;16.50;83.90;;;;;;5091713;28;20032;-66
2021/05/21 00:33:49;;;;;;;7.93;6.95;;;16.50;84.00;;;;;;5094272;28;20039;-66
2021/05/21 00:36:15;;;;;;;8.88;7.32;;;16.50;84.10;;;;;;5094243;28;20012;-66
2021/05/21 00:38:41;;;;;;;9.45;7.78;;;16.50;84.00;;;;;;5093768;28;20460;-66
2021/05/21 00:41:07;;;;;;;8.10;6.88;;;16.40;84.10;;;;;;5092925;28;20177;-66
2021/05/21 00:43:33;;;;;;;8.45;6.97;;;16.40;84.30;;;;;;5092494;28;20119;-66
2021/05/21 00:46:00;;;;;;;10.02;6.90;;;16.40;84.30;;;;;;5093755;28;20024;-66
2021/05/21 00:48:25;;;;;;;7.90;6.85;;;16.40;84.30;;;;;;5093248;28;20039;-66
2021/05/21 00:50:51;;;;;;;9.15;7.95;;;16.40;84.40;;;;;;5092660;28;20472;-66
2021/05/21 00:53:20;;;;;;;9.90;7.97;;;16.30;84.50;;;;;;5093778;28;20035;-66
2021/05/21 00:55:46;;;;;;;9.57;8.00;;;16.30;84.80;;;;;;5083099;28;20046;-66
2021/05/21 00:58:12;;;;;;;9.70;8.15;;;16.30;84.80;;;;;;5093261;28;20024;-66
2021/05/21 01:00:37;;;;;;;9.45;7.95;;;16.20;84.90;;;;;;5092033;28;20070;-66
2021/05/21 01:03:03;;;;;;;9.93;7.28;;;16.20;85.10;;;;;;5093830;28;20028;-66
2021/05/21 01:05:29;;;;;;;9.40;8.25;;;16.10;85.20;;;;;;5092542;28;20024;-66
2021/05/21 01:07:54;;;;;;;8.30;7.50;;;16.10;85.50;;;;;;5093142;28;20055;-66
2021/05/21 01:10:20;;;;;;;8.07;7.25;;;16.10;85.70;;;;;;5091992;28;20063;-66
2021/05/21 01:12:45;;;;;;;9.10;6.93;;;16.10;85.80;;;;;;5093262;28;20036;-66
2021/05/21 01:15:12;;;;;;;7.90;7.10;;;16.00;85.90;;;;;;5082422;28;20349;-66
2021/05/21 01:17:38;;;;;;;8.70;7.00;;;16.00;86.30;;;;;;5089101;28;20035;-66
2021/05/21 01:20:13;;;;;;;8.25;5.93;;;16.00;86.00;;;;;;5092490;28;20106;-66
2021/05/21 01:22:39;;;;;;;7.63;6.53;;;16.00;86.00;;;;;;5088171;28;20027;-66
2021/05/21 01:25:06;;;;;;;7.13;6.43;;;16.00;86.40;;;;;;5093213;28;20077;-66
2021/05/21 01:27:32;;;;;;;7.25;6.43;;;16.00;86.40;;;;;;5093068;28;20036;-66
2021/05/21 01:29:58;;;;;;;7.60;6.00;;;16.00;86.40;;;;;;5091343;28;20024;-66
2021/05/21 01:32:23;;;;;;;7.30;6.60;;;16.00;86.30;;;;;;5087568;28;20028;-66
2021/05/21 01:34:49;;;;;;;6.97;5.82;;;15.90;86.40;;;;;;5092243;28;20062;-66
2021/05/21 01:37:20;;;;;;;6.68;5.97;;;16.00;86.70;;;;;;5092641;28;20012;-66
2021/05/21 01:39:47;;;;;;;;;;;16.00;86.70;;;;;;5093276;28;20028;-66
2021/05/21 01:42:14;;;;;;;7.03;5.68;;;15.90;86.20;;;;;;5090801;28;19916;-66
2021/05/21 01:44:42;;;;;;;5.35;3.95;;;15.90;86.40;;;;;;5092596;28;20387;-66
2021/05/21 01:47:10;;;;;;;4.63;3.58;;;15.90;85.50;;;;;;5083413;28;20020;-66
2021/05/21 01:49:36;;;;;;;5.20;3.90;;;15.90;84.80;;;;;;5074348;28;20056;-66
2021/05/21 01:52:02;;;;;;;3.88;3.47;;;15.90;84.80;;;;;;5091085;28;20055;-66
2021/05/21 01:54:29;;;;;;;5.00;3.58;;;15.90;84.10;;;;;;5093160;28;20024;-68
2021/05/21 01:56:55;;;;;;;4.65;4.18;;;15.90;84.00;;;;;;5092391;28;20387;-67
2021/05/21 01:59:23;;;;;;;3.83;3.45;;;15.90;83.90;;;;;;5091837;28;20471;-67
2021/05/21 02:01:49;;;;;;;4.90;3.70;;;16.00;83.20;;;;;;5090857;28;20035;-67
2021/05/21 02:04:15;;;;;;;4.15;3.70;;;16.00;82.90;;;;;;5090636;28;20060;-67
2021/05/21 02:06:41;;;;;;;5.97;3.72;;;16.00;82.50;;;;;;5090105;28;20032;-67
2021/05/21 02:09:09;;;;;;;3.92;3.53;;;15.90;81.90;;;;;;5091427;28;20357;-66
2021/05/21 02:11:36;;;;;;;4.30;3.60;;;15.90;81.10;;;;;;5093008;28;20032;-67
2021/05/21 02:14:03;;;;;;;7.43;3.85;;;15.90;81.00;;;;;;5092223;28;20088;-67
2021/05/21 02:16:28;;;;;;;3.75;3.30;;;15.90;80.70;;;;;;5092860;28;20464;-67
2021/05/21 02:18:54;;;;;;;4.45;3.42;;;15.90;80.40;;;;;;5091427;28;20027;-67
2021/05/21 02:21:20;;;;;;;4.30;3.10;;;15.90;80.00;;;;;;5092753;28;20570;-67
2021/05/21 02:23:45;;;;;;;3.45;3.15;;;15.80;79.50;;;;;;5090329;28;20027;-67
2021/05/21 02:26:11;;;;;;;3.25;2.90;;;15.80;79.60;;;;;;5092957;28;20020;-67
2021/05/21 02:28:37;;;;;;;3.45;2.88;;;15.80;79.60;;;;;;5095470;28;20078;-67
2021/05/21 02:31:02;;;;;;;3.42;2.95;;;15.80;78.80;;;;;;5093216;28;20035;-67
2021/05/21 02:33:28;;;;;;;4.30;3.15;;;15.80;78.40;;;;;;5095391;28;20024;-67
2021/05/21 02:35:54;;;;;;;3.80;2.67;;;15.80;78.10;;;;;;5095391;28;20387;-67
2021/05/21 02:38:20;;;;;;;4.32;2.97;;;15.80;78.10;;;;;;5095760;28;20038;-67
2021/05/21 02:40:46;;;;;;;4.47;2.90;;;15.80;78.10;;;;;;5095583;28;20031;-67
2021/05/21 02:43:13;;;;;;;3.03;2.50;;;15.70;77.90;;;;;;5096700;28;20078;-67
2021/05/21 02:45:39;;;;;;;3.30;3.00;;;15.70;77.80;;;;;;5096061;28;20120;-67
2021/05/21 02:48:05;;;;;;;3.10;2.83;;;15.70;77.30;;;;;;5084297;28;20111;-67
2021/05/21 02:50:31;;;;;;;3.67;3.05;;;15.80;77.30;;;;;;5090323;28;20020;-67
2021/05/21 02:52:57;;;;;;;3.72;2.75;;;15.80;77.80;;;;;;5067326;28;20102;-67
2021/05/21 02:55:22;;;;;;;4.25;2.80;;;15.80;77.60;;;;;;5096425;28;20035;-67
2021/05/21 02:57:48;;;;;;;4.65;3.17;;;15.80;77.40;;;;;;5093788;28;20451;-67
2021/05/21 03:00:15;;;;;;;3.20;2.90;;;15.90;77.20;;;;;;5093349;28;20107;-67
2021/05/21 03:02:40;;;;;;;4.13;2.70;;;15.90;77.30;;;;;;5096132;28;20035;-67
2021/05/21 03:05:07;;;;;;;3.35;2.80;;;16.00;77.10;;;;;;5094535;28;20130;-67
2021/05/21 03:07:32;;;;;;;5.03;3.13;;;16.10;76.70;;;;;;5091920;28;20066;-67
2021/05/21 03:09:58;;;;;;;3.30;3.00;;;16.10;76.50;;;;;;5094133;28;20071;-67
2021/05/21 03:12:24;;;;;;;3.50;2.90;;;16.10;76.10;;;;;;5095892;28;20476;-67
2021/05/21 03:14:49;;;;;;;3.78;3.20;;;16.20;76.50;;;;;;5094277;28;20047;-67
2021/05/21 03:17:15;;;;;;;4.25;3.10;;;16.20;76.20;;;;;;5094266;28;20028;-67
2021/05/21 03:19:41;;;;;;;3.13;2.83;;;16.30;76.30;;;;;;5095689;28;20021;-67
2021/05/21 03:22:07;;;;;;;3.30;3.00;;;16.50;77.00;;;;;;5092148;28;20081;-67
2021/05/21 03:24:32;;;;;;;3.45;2.83;;;16.60;76.90;;;;;;5095374;28;20590;-67
2021/05/21 03:26:58;;;;;;;3.00;2.70;;;16.70;76.30;;;;;;5095171;28;20111;-67
2021/05/21 03:29:24;;;;;;;3.58;2.63;;;16.90;76.70;;;;;;5093978;28;20059;-67
2021/05/21 03:31:50;;;;;;;2.72;2.40;;;17.10;77.00;;;;;;5093758;28;20028;-67
2021/05/21 03:34:15;;;;;;;3.92;2.53;;;17.40;76.80;;;;;;5095300;28;20099;-67
2021/05/21 03:36:41;;;;;;;3.53;2.38;;;17.70;76.10;;;;;;5094317;28;20068;-67
2021/05/21 03:39:08;;;;;;;3.72;2.22;;;18.00;74.60;;;;;;5094858;28;20024;-67
2021/05/21 03:41:35;;;;;;;2.08;1.85;;;18.30;72.30;;;;;;5094501;28;20024;-67
2021/05/21 03:44:01;;;;;;;2.90;2.22;;;18.50;70.60;;;;;;5094736;28;20458;-67
2021/05/21 03:46:27;;;;;;;2.13;1.95;;;18.60;69.40;;;;;;5089431;28;20052;-67
2021/05/21 03:48:52;;;;;;;2.47;2.28;;;18.60;68.50;;;;;;5088467;28;20358;-67
2021/05/21 03:51:18;;;;;;;2.08;1.88;;;18.60;67.70;;;;;;5092564;28;20073;-67
2021/05/21 03:53:44;;;;;;;2.90;2.33;;;18.60;66.80;;;;;;5094112;28;20050;-67
2021/05/21 03:56:11;;;;;;;2.60;2.40;;;18.50;66.40;;;;;;5094329;28;20415;-67
2021/05/21 03:58:38;;;;;;;2.30;1.90;;;18.40;66.10;;;;;;5094699;28;20430;-67
2021/05/21 04:01:04;;;;;;;2.40;1.88;;;18.30;65.30;;;;;;5093940;28;20061;-67
2021/05/21 04:03:29;;;;;;;1.92;1.83;;;18.20;65.30;;;;;;5094767;28;20028;-67
2021/05/21 04:05:55;;;;;;;3.03;2.58;;;18.10;65.10;;;;;;5090895;28;20399;-67
2021/05/21 04:08:21;;;;;;;2.30;1.85;;;18.00;65.00;;;;;;5094033;28;20364;-67
2021/05/21 04:10:47;;;;;;;2.50;1.90;;;18.00;65.20;;;;;;5090917;28;20029;-67
2021/05/21 04:13:13;;;;;;;2.63;1.98;;;17.90;64.80;;;;;;5094483;28;20032;-67
2021/05/21 04:15:39;;;;;;;2.10;2.00;;;17.90;64.80;;;;;;5094496;28;20020;-67
2021/05/21 04:18:10;;;;;;;3.13;1.85;;;17.80;65.20;;;;;;5094117;28;20016;-67
2021/05/21 04:20:36;;;;;;;;;;;17.90;65.20;;;;;;5093697;28;20069;-67
2021/05/21 04:23:02;;;;;;;2.63;1.73;;;18.10;65.20;;;;;;5082550;28;19909;-67
2021/05/21 04:25:28;;;;;;;2.08;1.77;;;18.50;65.60;;;;;;5088683;28;20066;-67
2021/05/21 04:27:54;;;;;;;1.77;1.67;;;18.90;65.30;;;;;;5094181;28;20406;-67
2021/05/21 04:30:21;;;;;;;2.63;1.58;;;19.50;64.10;;;;;;5091428;28;20069;-67
2021/05/21 04:32:46;;;;;;;1.80;1.70;;;20.00;63.20;;;;;;5088347;28;20020;-67
2021/05/21 04:35:12;;;;;;;2.28;1.60;;;20.70;61.90;;;;;;5076252;28;20104;-67
2021/05/21 04:37:38;;;;;;;1.45;1.35;;;21.60;60.90;;;;;;5092853;28;20442;-67
2021/05/21 04:40:05;;;;;;;2.08;1.75;;;22.70;59.70;;;;;;5093861;28;20476;-67
2021/05/21 04:42:30;;;;;;;1.58;1.40;;;23.80;58.00;;;;;;5087668;28;20032;-67
2021/05/21 04:44:56;;;;;;;2.00;1.67;;;24.90;56.00;;;;;;5093195;28;20097;-67
2021/05/21 04:47:21;;;;;;;1.67;1.30;;;25.90;54.40;;;;;;5070531;28;20074;-67
2021/05/21 04:49:47;;;;;;;1.90;1.58;;;26.70;52.30;;;;;;5092759;28;20032;-67
2021/05/21 04:52:13;;;;;;;1.92;1.30;;;27.20;51.20;;;;;;5093639;28;20079;-67
2021/05/21 04:54:39;;;;;;;2.22;1.88;;;27.70;50.60;;;;;;5094213;28;20028;-67
2021/05/21 04:57:05;;;;;;;1.55;1.40;;;28.30;49.10;;;;;;5088837;28;20032;-67
2021/05/21 04:59:31;;;;;;;2.17;1.63;;;28.90;48.40;;;;;;5092782;28;20355;-67
2021/05/21 05:01:57;;;;;;;1.77;1.63;;;29.40;47.40;;;;;;5087786;28;20020;-67
2021/05/21 05:04:23;;;;;;;1.00;0.95;;;29.80;46.60;;;;;;5092238;28;20117;-68
2021/05/21 05:06:49;;;;;;;2.55;1.67;;;30.20;46.10;;;;;;5084447;28;20081;-68
2021/05/21 05:09:16;;;;;;;1.90;1.23;;;30.70;44.70;;;;;;5093295;28;20039;-68
2021/05/21 05:11:43;;;;;;;1.30;1.20;;;31.10;44.00;;;;;;5060613;28;20027;-68
2021/05/21 05:14:12;;;;;;;1.58;1.42;;;31.50;43.60;;;;;;5093293;28;20031;-68
2021/05/21 05:16:41;;;;;;;1.88;1.00;;;31.80;43.10;;;;;;5093017;28;20039;-67
2021/05/21 05:19:08;;;;;;;1.75;1.15;;;32.00;42.10;;;;;;5085328;28;20032;-67
2021/05/21 05:21:37;;;;;;;1.65;1.20;;;32.00;41.40;;;;;;5092543;28;20032;-67
2021/05/21 05:24:04;;;;;;;0.90;0.90;;;31.70;40.80;;;;;;5084559;28;20107;-67
2021/05/21 05:26:31;;;;;;;1.10;1.00;;;31.20;40.30;;;;;;5093104;28;20089;-67
2021/05/21 05:29:00;;;;;;;2.88;1.13;;;30.30;40.60;;;;;;5088146;28;20058;-67
2021/05/21 05:31:26;;;;;;;1.30;1.17;;;29.30;40.70;;;;;;5086313;28;20141;-67
2021/05/21 05:33:51;;;;;;;1.63;1.33;;;28.30;41.90;;;;;;5083018;28;20049;-67
2021/05/21 05:36:17;;;;;;;0.90;0.90;;;27.40;42.40;;;;;;5075747;28;20048;-68
2021/05/21 05:38:42;;;;;;;2.15;1.73;;;26.60;43.10;;;;;;5081874;28;20036;-59
2021/05/21 05:41:08;;;;;;;2.35;2.15;;;25.90;43.70;;;;;;5084322;28;20437;-58
2021/05/21 05:43:34;;;;;;;1.90;1.58;;;25.20;44.40;;;;;;5086181;28;20051;-58
2021/05/21 05:45:59;;;;;;;1.55;1.30;;;24.60;44.70;;;;;;5086482;28;20427;-58
2021/05/21 05:48:25;;;;;;;1.10;1.10;;;24.10;45.50;;;;;;5082110;28;20474;-58
2021/05/21 05:50:51;;;;;;;1.45;1.35;;;23.60;46.00;;;;;;5081432;28;20060;-58
2021/05/21 05:53:18;;;;;;;1.20;1.13;;;23.20;46.90;;;;;;5080751;28;20105;-57
2021/05/21 05:55:44;;;;;;;1.52;1.42;;;22.90;47.10;;;;;;5083971;28;20614;-57
2021/05/21 05:58:11;;;;;;;0.93;0.93;;;22.60;47.60;;;;;;5076504;28;20078;-57
2021/05/21 06:00:36;;;;;;;1.33;1.23;;;22.30;48.00;;;;;;5077627;28;20028;-58
2021/05/21 06:03:10;;;;;;;1.38;1.25;;;22.10;48.50;;;;;;5082824;28;20024;-59
2021/05/21 06:05:37;;;;;;;1.25;1.17;;;22.00;48.80;;;;;;5083404;28;20056;-59
2021/05/21 06:08:05;;;;;;;1.73;1.60;;;21.80;48.80;;;;;;5077609;28;20070;-56
2021/05/21 06:10:31;;;;;;;1.25;1.25;;;21.70;49.10;;;;;;5086599;28;20466;-56
2021/05/21 06:13:05;;;;;;;1.75;1.65;;;21.70;49.60;;;;;;5081075;28;20052;-59
2021/05/21 06:15:31;;;;;;;1.70;1.27;;;21.50;49.70;;;;;;5073416;28;20020;-57
2021/05/21 06:17:57;;;;;;;1.50;1.40;;;21.40;50.00;;;;;;5085358;28;20028;-54
2021/05/21 06:20:24;;;;;;;1.65;1.20;;;21.30;49.80;;;;;;5085006;28;20055;-56
2021/05/21 06:22:50;;;;;;;2.45;1.50;;;21.20;50.40;;;;;;5086041;28;20118;-55
2021/05/21 06:25:19;;;;;;;1.55;1.45;;;21.10;50.80;;;;;;5086665;28;20032;-56
2021/05/21 06:27:45;;;;;;;1.55;1.45;;;21.10;51.00;;;;;;5077369;28;20410;-56
2021/05/21 06:30:13;;;;;;;2.10;1.50;;;21.00;51.30;;;;;;5080467;28;20120;-57
2021/05/21 06:32:40;;;;;;;1.88;1.77;;;21.00;51.60;;;;;;5089181;28;20042;-54
2021/05/21 06:35:07;;;;;;;2.25;1.60;;;21.00;51.50;;;;;;5084282;28;20063;-53
2021/05/21 06:37:33;;;;;;;1.80;1.70;;;21.00;51.70;;;;;;5082055;28;21211;-51
2021/05/21 06:39:59;;;;;;;1.80;1.70;;;21.00;52.00;;;;;;5075656;28;20028;-53
2021/05/21 06:42:25;;;;;;;1.60;1.50;;;21.00;52.50;;;;;;5083550;28;20533;-53
2021/05/21 06:44:51;;;;;;;1.90;1.70;;;21.00;52.30;;;;;;5081920;28;20079;-51
2021/05/21 06:47:16;;;;;;;2.65;1.90;;;20.90;52.40;;;;;;5078554;28;20479;-52
2021/05/21 06:49:42;;;;;;;2.38;1.50;;;20.90;53.20;;;;;;5084795;28;20032;-67
2021/05/21 06:52:08;;;;;;;2.22;1.88;;;20.90;53.20;;;;;;5081631;28;20520;-65
2021/05/21 06:54:35;;;;;;;2.15;1.60;;;20.90;52.90;;;;;;5088812;28;20019;-66
2021/05/21 06:57:01;;;;;;;1.90;1.75;;;20.80;53.30;;;;;;5079634;28;20027;-66
2021/05/21 06:59:26;;;;;;;3.13;1.92;;;20.80;53.40;;;;;;5077587;28;20458;-66
2021/05/21 07:01:52;;;;;;;1.98;1.75;;;20.80;53.90;;;;;;5073406;28;20110;-66
2021/05/21 07:04:18;;;;;;;2.65;1.45;;;20.80;54.40;;;;;;5073287;28;20032;-64
2021/05/21 07:06:43;;;;;;;2.70;2.40;;;20.70;55.10;;;;;;5071979;28;20055;-66
2021/05/21 07:09:09;;;;;;;2.10;1.73;;;20.60;55.20;;;;;;5078903;28;20089;-65
2021/05/21 07:11:35;;;;;;;1.88;1.77;;;20.50;55.50;;;;;;5063705;28;20085;-66
2021/05/21 07:14:03;;;;;;;1.90;1.70;;;20.50;55.90;;;;;;5069093;28;20028;-66
2021/05/21 07:16:29;;;;;;;2.10;1.98;;;20.50;55.90;;;;;;5077142;28;20402;-64
2021/05/21 07:18:54;;;;;;;1.90;1.80;;;20.40;56.00;;;;;;5077981;28;20036;-64
2021/05/21 07:21:20;;;;;;;1.90;1.80;;;20.40;56.20;;;;;;5077083;28;20055;-64
2021/05/21 07:23:46;;;;;;;1.90;1.80;;;20.40;56.30;;;;;;5074434;28;20043;-64
2021/05/21 07:26:12;;;;;;;1.83;1.73;;;20.40;56.20;;;;;;5069562;28;20587;-64
2021/05/21 07:28:37;;;;;;;1.80;1.70;;;20.30;56.00;;;;;;5073174;28;20020;-63
2021/05/21 07:31:03;;;;;;;1.70;1.60;;;20.30;56.20;;;;;;5069895;28;20024;-64
2021/05/21 07:33:32;;;;;;;2.72;1.65;;;20.30;56.30;;;;;;5072055;28;20034;-63
2021/05/21 07:36:00;;;;;;;1.80;1.70;;;20.20;56.40;;;;;;5075346;28;20038;-65
2021/05/21 07:38:25;;;;;;;2.35;1.80;;;20.20;56.50;;;;;;5076858;28;20796;-65
2021/05/21 07:40:51;;;;;;;1.20;1.20;;;20.10;56.30;;;;;;5068658;28;20028;-66
2021/05/21 07:43:17;;;;;;;1.55;1.50;;;20.10;56.00;;;;;;5077811;28;20452;-66
2021/05/21 07:45:43;;;;;;;1.55;1.45;;;20.10;56.30;;;;;;5072759;28;20392;-67
2021/05/21 07:48:09;;;;;;;1.50;0.98;;;20.10;55.40;;;;;;5067939;28;20041;-65
2021/05/21 07:50:38;;;;;;;1.20;1.20;;;20.00;55.30;;;;;;5073557;28;20491;-63
2021/05/21 07:53:04;;;;;;;1.27;1.20;;;20.00;55.00;;;;;;5074416;28;20028;-65
2021/05/21 07:55:30;;;;;;;2.28;1.33;;;20.00;54.60;;;;;;5076344;28;20127;-65
2021/05/21 07:57:56;;;;;;;1.00;1.00;;;20.00;54.60;;;;;;5070652;28;20401;-64
2021/05/21 08:00:21;;;;;;;1.73;1.20;;;20.00;54.50;;;;;;5071609;28;20068;-67
2021/05/21 08:02:47;;;;;;;1.08;1.02;;;20.00;54.30;;;;;;5069280;28;20096;-64
2021/05/21 08:05:13;;;;;;;1.00;0.98;;;20.10;54.00;;;;;;5067592;28;20510;-66
2021/05/21 08:07:38;;;;;;;0.95;0.90;;;20.10;54.30;;;;;;5076541;28;20480;-65
2021/05/21 08:10:07;;;;;;;0.95;0.95;;;20.10;54.00;;;;;;5072498;28;20569;-64
2021/05/21 08:12:32;;;;;;;1.10;1.00;;;20.10;53.90;;;;;;5075884;28;20036;-64
2021/05/21 08:14:58;;;;;;;0.95;0.95;;;20.10;53.50;;;;;;5073341;28;21914;-65
2021/05/21 08:17:24;;;;;;;1.08;1.00;;;20.10;53.40;;;;;;5065733;28;20025;-66
2021/05/21 08:19:50;;;;;;;1.10;0.80;;;20.10;54.00;;;;;;5066485;28;20060;-65
2021/05/21 08:22:16;;;;;;;1.70;1.02;;;20.00;54.00;;;;;;5069162;28;20420;-67
2021/05/21 08:24:42;;;;;;;0.70;0.70;;;20.00;53.30;;;;;;5074682;28;20578;-64
2021/05/21 08:27:08;;;;;;;1.17;0.82;;;19.90;53.50;;;;;;5073213;28;20032;-65
2021/05/21 08:29:33;;;;;;;1.10;0.77;;;19.90;53.30;;;;;;5074548;28;20115;-65
2021/05/21 08:32:01;;;;;;;1.00;0.90;;;19.90;53.10;;;;;;5074771;28;20050;-63
2021/05/21 08:34:27;;;;;;;0.77;0.77;;;19.90;53.50;;;;;;5073864;28;20074;-65
2021/05/21 08:36:52;;;;;;;1.38;1.27;;;19.90;53.20;;;;;;5073176;28;20467;-63
2021/05/21 08:39:18;;;;;;;0.75;0.75;;;19.90;53.20;;;;;;5074039;28;20053;-64
2021/05/21 08:41:50;;;;;;;0.68;0.68;;;19.90;53.20;;;;;;5072217;28;20044;-68
2021/05/21 08:44:18;;;;;;;0.90;0.90;;;19.90;53.10;;;;;;5068971;28;20040;-67
2021/05/21 08:46:44;;;;;;;0.57;0.57;;;19.90;53.60;;;;;;5071184;28;20459;-63
2021/05/21 08:49:10;;;;;;;0.60;0.60;;;20.00;53.80;;;;;;5072646;28;20063;-61
2021/05/21 08:51:36;;;;;;;0.93;0.93;;;20.00;53.90;;;;;;5072255;28;20038;-61
2021/05/21 08:54:03;;;;;;;0.88;0.80;;;20.00;54.00;;;;;;5068819;28;20050;-61
2021/05/21 08:56:28;;;;;;;1.17;1.00;;;20.10;54.20;;;;;;5071159;28;20031;-64
2021/05/21 08:58:57;;;;;;;0.77;0.77;;;20.20;54.20;;;;;;5072896;28;20845;-63
2021/05/21 09:01:26;;;;;;;0.93;0.93;;;20.20;54.10;;;;;;5075882;28;20813;-64
2021/05/21 09:04:01;;;;;;;0.60;0.60;;;20.30;53.60;;;;;;5075217;28;20040;-64
2021/05/21 09:06:28;;;;;;;1.45;0.90;;;20.30;53.10;;;;;;5080159;28;20032;-64
2021/05/21 09:08:56;;;;;;;1.10;1.02;;;20.30;53.30;;;;;;5073580;28;20134;-64
2021/05/21 09:11:40;;;;;;;0.65;0.65;;;20.30;53.50;;;;;;5071492;28;20130;-65
2021/05/21 09:14:11;;;;;;;0.77;0.77;;;20.40;53.10;;;;;;5074947;28;20039;-63
2021/05/21 09:16:39;;;;;;;1.20;0.80;;;20.30;52.60;;;;;;5076153;28;20028;-63
2021/05/21 09:19:09;;;;;;;1.20;1.10;;;20.40;52.80;;;;;;5069119;28;20028;-64
2021/05/21 09:22:06;;;;;;;0.82;0.82;;;20.30;52.30;;;;;;5078204;28;20032;-63
2021/05/21 09:24:37;;;;;;;0.90;0.90;;;20.30;52.40;;;;;;5079519;28;20020;-65
2021/05/21 09:27:04;;;;;;;0.90;0.90;;;20.30;52.50;;;;;;5078151;28;20059;-65
2021/05/21 09:29:35;;;;;;;1.00;1.00;;;20.30;52.60;;;;;;5075140;28;20092;-63
2021/05/21 09:32:13;;;;;;;1.00;0.95;;;20.30;52.70;;;;;;5072444;28;20036;-65
2021/05/21 09:34:39;;;;;;;0.93;0.93;;;20.20;52.90;;;;;;5072994;28;20031;-66
2021/05/21 09:37:05;;;;;;;0.90;0.90;;;20.20;52.70;;;;;;5054760;28;20023;-65
2021/05/21 09:39:30;;;;;;;1.05;0.82;;;20.20;52.60;;;;;;5059764;28;20467;-59
2021/05/21 09:42:00;;;;;;;1.20;1.10;;;20.30;52.90;;;;;;5074887;28;20032;-59
2021/05/21 09:44:27;;;;;;;1.20;1.10;;;20.30;53.20;;;;;;5069939;28;20060;-64
2021/05/21 09:46:53;;;;;;;0.93;0.93;;;20.30;53.30;;;;;;5073374;28;20032;-64
2021/05/21 09:49:35;;;;;;;0.90;0.90;;;20.30;53.40;;;;;;5072465;28;20043;-64
2021/05/21 09:52:03;;;;;;;1.10;0.98;;;20.30;53.50;;;;;;5068046;28;20488;-64
2021/05/21 09:54:48;;;;;;;0.88;0.88;;;20.30;52.90;;;;;;5066987;28;20375;-62
2021/05/21 09:57:13;;;;;;;1.92;0.90;;;20.30;52.70;;;;;;5074784;28;20533;-62
2021/05/21 09:59:41;;;;;;;1.48;0.95;;;20.30;53.10;;;;;;5066233;28;20028;-66
2021/05/21 10:02:21;;;;;;;1.25;0.90;;;20.30;53.20;;;;;;5067141;28;20029;-66
2021/05/21 10:04:47;;;;;;;0.70;0.70;;;20.40;53.40;;;;;;5066686;28;20031;-67
2021/05/21 10:07:13;;;;;;;0.90;0.90;;;20.40;53.00;;;;;;5075091;28;20350;-67
2021/05/21 10:09:39;;;;;;;0.73;0.73;;;20.40;53.40;;;;;;5072096;28;20641;-66
2021/05/21 10:12:07;;;;;;;0.80;0.80;;;20.40;52.90;;;;;;5068496;28;20076;-66
2021/05/21 10:14:33;;;;;;;0.70;0.70;;;20.40;53.00;;;;;;5077081;28;20020;-66
2021/05/21 10:17:01;;;;;;;0.95;0.95;;;20.40;52.70;;;;;;5079054;28;20209;-66
2021/05/21 10:19:27;;;;;;;0.90;0.90;;;20.40;52.80;;;;;;5080081;28;20118;-66
2021/05/21 10:21:54;;;;;;;1.25;1.15;;;20.40;52.90;;;;;;5080191;28;20039;-67
2021/05/21 10:24:21;;;;;;;1.25;1.20;;;20.40;52.70;;;;;;5074847;28;20032;-66
2021/05/21 10:26:54;;;;;;;0.75;0.75;;;20.30;52.50;;;;;;5072352;28;20032;-66
2021/05/21 10:29:23;;;;;;;1.25;1.20;;;20.40;52.30;;;;;;5077739;28;20043;-65
2021/05/21 10:31:53;;;;;;;1.25;1.15;;;20.40;52.10;;;;;;5080540;28;20020;-66
2021/05/21 10:34:20;;;;;;;0.95;0.85;;;20.40;51.80;;;;;;5080079;28;20025;-66
2021/05/21 10:36:47;;;;;;;1.42;0.93;;;20.40;52.60;;;;;;5083831;28;20089;-66
2021/05/21 10:39:18;;;;;;;1.50;1.40;;;20.40;52.20;;;;;;5078480;28;20024;-66
2021/05/21 10:41:53;;;;;;;1.00;1.00;;;20.40;52.50;;;;;;5084715;28;20105;-66
2021/05/21 10:44:21;;;;;;;0.85;0.80;;;20.40;52.60;;;;;;5080626;28;20055;-66
2021/05/21 10:46:49;;;;;;;0.85;0.85;;;20.50;52.70;;;;;;5084401;28;20028;-66
2021/05/21 10:49:26;;;;;;;1.30;1.10;;;20.40;52.50;;;;;;5090739;28;20121;-66
2021/05/21 10:51:53;;;;;;;1.40;1.20;;;20.50;52.70;;;;;;5082207;28;20025;-66
2021/05/21 10:54:31;;;;;;;0.95;0.95;;;20.50;52.60;;;;;;5086984;28;20115;-67
2021/05/21 10:57:13;;;;;;;0.95;0.95;;;20.50;53.30;;;;;;5071754;28;20025;-65
2021/05/21 10:59:41;;;;;;;1.00;1.00;;;20.50;53.00;;;;;;5080137;28;20013;-67
2021/05/21 11:02:08;;;;;;;0.93;0.82;;;20.50;53.30;;;;;;5075463;28;20035;-66
2021/05/21 11:04:33;;;;;;;1.08;1.08;;;20.50;53.20;;;;;;5078507;28;20040;-62
2021/05/21 11:07:02;;;;;;;0.77;0.77;;;20.50;53.20;;;;;;5075846;28;20433;-63
2021/05/21 11:09:30;;;;;;;0.82;0.82;;;20.50;52.80;;;;;;5048320;28;20031;-64
2021/05/21 11:12:08;;;;;;;1.42;1.33;;;20.50;52.80;;;;;;5078987;28;20032;-63
2021/05/21 11:14:45;;;;;;;1.17;1.10;;;20.50;52.90;;;;;;5081969;28;20368;-63
2021/05/21 11:17:28;;;;;;;0.95;0.95;;;20.50;52.90;;;;;;5080508;28;20368;-65
2021/05/21 11:19:58;;;;;;;0.80;0.80;;;20.50;52.70;;;;;;5076982;28;20161;-65
2021/05/21 11:22:27;;;;;;;1.13;1.02;;;20.60;51.80;;;;;;5077826;28;20551;-65
2021/05/21 11:25:02;;;;;;;1.25;0.82;;;20.60;51.70;;;;;;5075113;28;21243;-67
2021/05/21 11:27:29;;;;;;;1.30;1.20;;;20.60;51.60;;;;;;5079410;28;20025;-65
2021/05/21 11:29:55;;;;;;;1.77;1.00;;;20.60;52.10;;;;;;5072144;28;20047;-65
2021/05/21 11:32:24;;;;;;;1.40;1.08;;;20.70;52.50;;;;;;5082309;28;20043;-65
2021/05/21 11:34:50;;;;;;;1.15;1.13;;;20.70;52.40;;;;;;5080795;28;20028;-65
2021/05/21 11:37:20;;;;;;;1.00;1.00;;;20.70;51.90;;;;;;5079119;28;20051;-63
2021/05/21 11:39:46;;;;;;;0.98;0.98;;;20.70;51.70;;;;;;5074808;28;20196;-64
2021/05/21 11:42:12;;;;;;;1.75;1.00;;;20.70;51.80;;;;;;5076890;28;20066;-64
2021/05/21 11:44:38;;;;;;;1.02;1.02;;;20.70;51.50;;;;;;5077439;28;20148;-63
2021/05/21 11:47:06;;;;;;;0.90;0.90;;;20.70;51.60;;;;;;5079740;28;20480;-63
2021/05/21 11:49:33;;;;;;;1.73;1.10;;;20.70;51.50;;;;;;5078708;28;20439;-63
2021/05/21 11:52:00;;;;;;;1.20;1.10;;;20.70;51.70;;;;;;5075624;28;20033;-67
2021/05/21 11:54:27;;;;;;;1.30;1.20;;;20.60;51.00;;;;;;5076617;28;20028;-65
2021/05/21 11:56:55;;;;;;;3.00;1.27;;;20.60;51.30;;;;;;5078148;28;20028;-66
2021/05/21 11:59:22;;;;;;;1.48;0.98;;;20.60;51.50;;;;;;5053452;28;20048;-64
2021/05/21 12:01:55;;;;;;;1.10;1.10;;;20.60;51.70;;;;;;5076380;28;20036;-65
2021/05/21 12:04:22;;;;;;;1.40;1.00;;;20.60;51.50;;;;;;5075429;28;20031;-64
2021/05/21 12:06:52;;;;;;;1.50;1.40;;;20.70;51.70;;;;;;5071966;28;20039;-65
2021/05/21 12:09:22;;;;;;;1.75;1.10;;;20.70;51.90;;;;;;5071699;28;20038;-66
2021/05/21 12:11:50;;;;;;;1.30;1.20;;;20.70;51.60;;;;;;5076728;28;20028;-65
2021/05/21 12:14:27;;;;;;;2.20;1.23;;;20.70;51.70;;;;;;5070708;28;20032;-65
2021/05/21 12:16:54;;;;;;;1.02;1.00;;;20.80;52.00;;;;;;5072852;28;20059;-65
2021/05/21 12:19:22;;;;;;;0.90;0.90;;;20.80;51.70;;;;;;5072259;28;20982;-67
2021/05/21 12:21:50;;;;;;;0.88;0.82;;;20.80;51.70;;;;;;5071363;28;20112;-65
2021/05/21 12:24:23;;;;;;;1.02;0.98;;;20.70;51.00;;;;;;5070945;28;20028;-65
2021/05/21 12:26:49;;;;;;;1.00;1.00;;;20.70;50.90;;;;;;5072107;28;20483;-63
2021/05/21 12:29:17;;;;;;;2.38;1.20;;;20.70;51.50;;;;;;5074997;28;20039;-65
2021/05/21 12:31:47;;;;;;;2.28;1.45;;;20.60;51.80;;;;;;5071073;28;20123;-64
2021/05/21 12:34:16;;;;;;;1.00;1.00;;;20.60;51.90;;;;;;5075796;28;20147;-64
2021/05/21 12:36:41;;;;;;;2.05;1.27;;;20.60;51.90;;;;;;5077131;28;20128;-63
2021/05/21 12:39:09;;;;;;;1.73;1.33;;;20.60;52.30;;;;;;5070561;28;20032;-66
2021/05/21 12:41:36;;;;;;;1.42;1.15;;;20.60;53.00;;;;;;5073661;28;20104;-64
2021/05/21 12:44:13;;;;;;;0.73;0.73;;;20.50;52.50;;;;;;5077251;28;20098;-64
2021/05/21 12:46:50;;;;;;;1.60;1.20;;;20.60;52.50;;;;;;5074482;28;20111;-64
2021/05/21 12:49:32;;;;;;;0.93;0.93;;;20.50;52.20;;;;;;5074745;28;20032;-64